createdAt,value
2023-01-12T00:02:22.447Z,100643.09
2023-01-12T00:04:50.766Z,100646.59
2023-01-12T00:07:20.369Z,100639.66
2023-01-12T00:09:50.114Z,100645.03
2023-01-12T00:12:18.221Z,100648.50
2023-01-12T00:14:46.346Z,100647.44
2023-01-12T00:17:17.284Z,100635.72
2023-01-12T00:19:45.370Z,100643.72
2023-01-12T00:22:17.931Z,100638.16
2023-01-12T00:24:49.643Z,100619.22
2023-01-12T00:27:21.109Z,100632.25
2023-01-12T00:29:49.494Z,100620.28
2023-01-12T00:32:19.266Z,100622.72
2023-01-12T00:34:47.742Z,100617.38
2023-01-12T00:37:16.047Z,100615.28
2023-01-12T00:40:00.900Z,100605.66
2023-01-12T00:42:49.158Z,100595.56
2023-01-12T00:45:23.251Z,100588.63
2023-01-12T00:47:51.458Z,100587.03
2023-01-12T00:50:19.896Z,100587.56
2023-01-12T00:52:48.188Z,100588.59
2023-01-12T00:55:16.507Z,100575.03
2023-01-12T00:57:46.007Z,100572.13
2023-01-12T01:00:15.168Z,100570.78
2023-01-12T01:02:43.284Z,100582.50
2023-01-12T01:05:11.559Z,100558.78
2023-01-12T01:07:39.809Z,100587.00
2023-01-12T01:10:09.030Z,100592.06
2023-01-12T01:12:38.440Z,100585.41
2023-01-12T01:15:09.200Z,100573.97
2023-01-12T01:17:37.338Z,100575.31
2023-01-12T01:20:06.262Z,100584.63
2023-01-12T01:22:34.428Z,100572.66
2023-01-12T01:25:02.517Z,100553.44
2023-01-12T01:27:30.658Z,100576.09
2023-01-12T01:29:58.805Z,100550.28
2023-01-12T01:32:28.312Z,100565.44
2023-01-12T01:34:56.559Z,100566.25
2023-01-12T01:37:24.685Z,100558.50
2023-01-12T01:39:52.756Z,100555.56
2023-01-12T01:42:29.562Z,100564.34
2023-01-12T01:45:00.157Z,100566.72
2023-01-12T01:47:36.135Z,100581.88
2023-01-12T01:50:07.814Z,100574.69
2023-01-12T01:52:39.511Z,100576.31
2023-01-12T01:55:12.805Z,100563.75
2023-01-12T01:57:46.011Z,100568.88
2023-01-12T02:00:15.185Z,100551.78
2023-01-12T02:02:46.652Z,100568.56
2023-01-12T02:05:18.827Z,100572.59
2023-01-12T02:07:47.262Z,100560.59
2023-01-12T02:10:16.139Z,100585.91
2023-01-12T02:13:02.182Z,100578.69
2023-01-12T02:15:54.069Z,100570.47
2023-01-12T02:18:29.804Z,100566.72
2023-01-12T02:21:07.801Z,100579.53
2023-01-12T02:24:28.942Z,100570.44
2023-01-12T02:27:33.089Z,100576.09
2023-01-12T02:30:35.020Z,100565.72
2023-01-12T02:33:19.496Z,100564.09
2023-01-12T02:35:58.918Z,100568.66
2023-01-12T02:38:36.300Z,100566.25
2023-01-12T02:41:12.755Z,100568.88
2023-01-12T02:43:42.294Z,100579.53
2023-01-12T02:46:14.650Z,100569.47
2023-01-12T02:48:50.125Z,100564.09
2023-01-12T02:51:24.740Z,100584.34
2023-01-12T02:53:55.776Z,100580.09
2023-01-12T02:56:31.735Z,100571.81
2023-01-12T02:59:04.565Z,100589.97
2023-01-12T03:01:34.209Z,100572.09
2023-01-12T03:04:07.368Z,100557.72
2023-01-12T03:06:41.685Z,100581.19
2023-01-12T03:09:10.223Z,100578.00
2023-01-12T03:11:41.968Z,100592.41
2023-01-12T03:14:12.198Z,100579.63
2023-01-12T03:16:43.355Z,100580.69
2023-01-12T03:19:17.191Z,100581.50
2023-01-12T03:21:51.957Z,100586.78
2023-01-12T03:24:24.637Z,100592.41
2023-01-12T03:26:57.426Z,100589.69
2023-01-12T03:29:31.179Z,100564.72
2023-01-12T03:31:59.853Z,100578.84
2023-01-12T03:34:29.959Z,100588.44
2023-01-12T03:37:04.554Z,100576.69
2023-01-12T03:39:43.603Z,100586.00
2023-01-12T03:42:18.071Z,100582.56
2023-01-12T03:44:57.068Z,100592.69
2023-01-12T03:47:29.852Z,100586.84
2023-01-12T03:50:02.821Z,100596.66
2023-01-12T03:52:32.630Z,100588.44
2023-01-12T03:55:03.017Z,100599.88
2023-01-12T03:57:31.773Z,100590.28
2023-01-12T04:00:03.141Z,100585.50
2023-01-12T04:02:31.352Z,100584.69
2023-01-12T04:05:00.888Z,100567.91
2023-01-12T04:07:30.168Z,100573.25
2023-01-12T04:09:58.463Z,100554.66
2023-01-12T04:12:26.577Z,100557.81
2023-01-12T04:14:54.778Z,100558.88
2023-01-12T04:17:25.394Z,100568.47
2023-01-12T04:19:53.725Z,100566.84
2023-01-12T04:22:49.234Z,100572.75
2023-01-12T04:25:19.613Z,100574.84
2023-01-12T04:27:49.505Z,100589.50
2023-01-12T04:30:20.332Z,100582.34
2023-01-12T04:32:48.456Z,100571.69
2023-01-12T04:35:17.693Z,100575.41
2023-01-12T04:37:47.698Z,100573.28
2023-01-12T04:40:18.146Z,100579.63
2023-01-12T04:43:07.363Z,100593.78
2023-01-12T04:45:37.170Z,100585.50
2023-01-12T04:48:07.517Z,100584.22
2023-01-12T04:50:36.279Z,100577.00
2023-01-12T04:53:07.240Z,100589.81
2023-01-12T04:55:38.004Z,100587.66
2023-01-12T04:58:06.323Z,100623.09
2023-01-12T05:00:34.752Z,100603.63
2023-01-12T05:03:03.612Z,100626.03
2023-01-12T05:05:34.167Z,100608.97
2023-01-12T05:08:20.779Z,100619.09
2023-01-12T05:10:52.472Z,100630.84
2023-01-12T05:13:20.756Z,100618.06
2023-01-12T05:15:48.967Z,100627.91
2023-01-12T05:18:17.207Z,100618.88
2023-01-12T05:20:45.876Z,100641.75
2023-01-12T05:23:14.033Z,100624.16
2023-01-12T05:25:42.234Z,100629.78
2023-01-12T05:28:11.893Z,100638.06
2023-01-12T05:30:40.082Z,100621.03
2023-01-12T05:33:08.370Z,100635.66
2023-01-12T05:35:39.337Z,100638.34
2023-01-12T05:38:08.119Z,100637.28
2023-01-12T05:40:36.335Z,100638.63
2023-01-12T05:43:21.807Z,100622.13
2023-01-12T05:45:51.366Z,100618.94
2023-01-12T05:48:19.429Z,100624.53
2023-01-12T05:50:47.597Z,100627.44
2023-01-12T05:53:15.822Z,100629.56
2023-01-12T05:55:43.920Z,100630.38
2023-01-12T05:58:12.063Z,100638.63
2023-01-12T06:00:40.259Z,100618.44
2023-01-12T06:03:09.728Z,100637.56
2023-01-12T06:05:37.838Z,100629.34
2023-01-12T06:08:06.327Z,100627.97
2023-01-12T06:10:37.045Z,100647.97
2023-01-12T06:13:22.586Z,100640.53
2023-01-12T06:15:50.903Z,100669.25
2023-01-12T06:18:22.734Z,100662.31
2023-01-12T06:20:50.815Z,100654.88
2023-01-12T06:23:19.023Z,100651.69
2023-01-12T06:25:47.197Z,100654.88
2023-01-12T06:28:16.456Z,100658.34
2023-01-12T06:30:44.617Z,100662.31
2023-01-12T06:33:13.470Z,100663.13
2023-01-12T06:35:49.737Z,100664.75
2023-01-12T06:38:19.062Z,100666.06
2023-01-12T06:40:47.657Z,100680.44
2023-01-12T06:43:14.749Z,100680.97
2023-01-12T06:45:42.989Z,100688.16
2023-01-12T06:48:11.455Z,100678.31
2023-01-12T06:50:39.682Z,100678.31
2023-01-12T06:53:09.515Z,100680.44
2023-01-12T06:55:37.623Z,100692.94
2023-01-12T06:58:05.860Z,100691.06
2023-01-12T07:00:34.118Z,100703.81
2023-01-12T07:03:02.240Z,100701.19
2023-01-12T07:05:30.387Z,100712.84
2023-01-12T07:08:00.512Z,100703.78
2023-01-12T07:10:32.634Z,100699.28
2023-01-12T07:13:01.567Z,100702.44
2023-01-12T07:15:30.083Z,100699.75
2023-01-12T07:17:58.532Z,100703.25
2023-01-12T07:20:28.736Z,100701.91
2023-01-12T07:22:57.394Z,100697.91
2023-01-12T07:25:25.944Z,100699.47
2023-01-12T07:27:57.428Z,100704.25
2023-01-12T07:30:27.007Z,100701.34
2023-01-12T07:32:55.412Z,100710.34
2023-01-12T07:35:25.279Z,100699.72
2023-01-12T07:37:55.013Z,100702.09
2023-01-12T07:40:23.200Z,100703.69
2023-01-12T07:43:01.037Z,100705.78
2023-01-12T07:45:30.073Z,100707.66
2023-01-12T07:47:58.941Z,100712.97
2023-01-12T07:50:29.663Z,100725.97
2023-01-12T07:53:02.445Z,100733.16
2023-01-12T07:55:31.106Z,100738.47
2023-01-12T07:58:03.136Z,100739.78
2023-01-12T08:00:32.396Z,100748.03
2023-01-12T08:03:05.665Z,100747.22
2023-01-12T08:05:34.287Z,100747.22
2023-01-12T08:08:03.704Z,100740.00
2023-01-12T08:10:32.012Z,100735.44
2023-01-12T08:13:01.736Z,100725.53
2023-01-12T08:15:36.868Z,100733.25
2023-01-12T08:18:09.143Z,100714.66
2023-01-12T08:20:39.562Z,100728.19
2023-01-12T08:23:12.951Z,100721.00
2023-01-12T08:25:46.859Z,100710.66
2023-01-12T08:28:21.006Z,100723.91
2023-01-12T08:30:50.332Z,100712.16
2023-01-12T08:33:18.708Z,100725.66
2023-01-12T08:35:48.248Z,100715.00
2023-01-12T08:38:16.729Z,100723.94
2023-01-12T08:41:10.668Z,100715.97
2023-01-12T08:43:57.620Z,100745.22
2023-01-12T08:46:25.830Z,100739.09
2023-01-12T08:48:54.299Z,100746.53
2023-01-12T08:51:22.550Z,100752.91
2023-01-12T08:53:50.871Z,100756.34
2023-01-12T08:56:19.055Z,100746.53
2023-01-12T08:58:48.676Z,100759.25
2023-01-12T09:01:17.486Z,100751.50
2023-01-12T09:03:45.838Z,100750.47
2023-01-12T09:06:16.262Z,100764.59
2023-01-12T09:08:45.447Z,100760.13
2023-01-12T09:11:15.719Z,100772.16
2023-01-12T09:13:43.958Z,100775.16
2023-01-12T09:16:17.016Z,100775.16
2023-01-12T09:18:45.725Z,100775.78
2023-01-12T09:21:16.329Z,100780.78
2023-01-12T09:23:46.119Z,100778.03
2023-01-12T09:26:16.881Z,100774.84
2023-01-12T09:28:46.005Z,100768.88
2023-01-12T09:31:18.980Z,100769.41
2023-01-12T09:33:51.471Z,100781.53
2023-01-12T09:36:21.422Z,100771.13
2023-01-12T09:38:50.214Z,100770.38
2023-01-12T09:41:40.685Z,100769.81
2023-01-12T09:44:36.533Z,100773.22
2023-01-12T09:47:10.704Z,100750.56
2023-01-12T09:49:45.117Z,100768.69
2023-01-12T09:52:18.534Z,100753.63
2023-01-12T09:54:49.789Z,100755.28
2023-01-12T09:57:46.760Z,100759.34
2023-01-12T10:00:17.195Z,100754.72
2023-01-12T10:02:50.290Z,100739.31
2023-01-12T10:05:38.941Z,100716.56
2023-01-12T10:08:15.951Z,100712.81
2023-01-12T10:10:57.310Z,100703.81
2023-01-12T10:13:32.064Z,100719.47
2023-01-12T10:16:06.328Z,100727.16
2023-01-12T10:18:44.850Z,100716.59
2023-01-12T10:21:15.811Z,100725.06
2023-01-12T10:23:44.390Z,100709.91
2023-01-12T10:26:22.251Z,100710.72
2023-01-12T10:28:53.616Z,100717.03
2023-01-12T10:31:28.187Z,100722.00
2023-01-12T10:34:08.433Z,100708.88
2023-01-12T10:36:38.342Z,100721.91
2023-01-12T10:39:07.658Z,100705.50
2023-01-12T10:41:39.027Z,100711.13
2023-01-12T10:44:15.059Z,100715.69
2023-01-12T10:46:43.780Z,100717.34
2023-01-12T10:49:21.574Z,100720.13
2023-01-12T10:51:56.402Z,100727.19
2023-01-12T10:54:27.108Z,100726.66
2023-01-12T10:57:00.017Z,100735.28
2023-01-12T10:59:31.661Z,100736.34
2023-01-12T11:02:16.686Z,100742.84
2023-01-12T11:04:49.741Z,100742.31
2023-01-12T11:07:22.016Z,100742.34
2023-01-12T11:09:50.390Z,100743.59
2023-01-12T11:12:24.488Z,100744.16
2023-01-12T11:15:01.451Z,100739.00
2023-01-12T11:17:48.858Z,100730.72
2023-01-12T11:20:24.864Z,100748.06
2023-01-12T11:22:56.228Z,100744.72
2023-01-12T11:25:26.011Z,100745.91
2023-01-12T11:27:58.285Z,100742.38
2023-01-12T11:30:32.383Z,100738.25
2023-01-12T11:33:08.985Z,100732.41
2023-01-12T11:35:42.848Z,100735.97
2023-01-12T11:38:14.865Z,100724.22
2023-01-12T11:40:45.335Z,100726.63
2023-01-12T11:43:45.242Z,100713.88
2023-01-12T11:46:21.641Z,100708.97
2023-01-12T11:48:57.205Z,100703.63
2023-01-12T11:51:27.139Z,100707.94
2023-01-12T11:53:55.484Z,100698.09
2023-01-12T11:57:09.855Z,100706.56
2023-01-12T11:59:46.130Z,100692.47
2023-01-12T12:02:28.881Z,100691.28
2023-01-12T12:05:06.792Z,100692.91
2023-01-12T12:07:55.422Z,100697.28
2023-01-12T12:10:26.219Z,100702.03
2023-01-12T12:13:18.272Z,100700.34
2023-01-12T12:15:56.162Z,100702.34
2023-01-12T12:18:39.692Z,100701.28
2023-01-12T12:21:20.430Z,100705.44
2023-01-12T12:24:01.668Z,100694.09
2023-01-12T12:26:34.416Z,100699.63
2023-01-12T12:29:18.969Z,100695.19
2023-01-12T12:32:13.197Z,100708.19
2023-01-12T12:35:01.102Z,100698.69
2023-01-12T12:37:38.758Z,100701.91
2023-01-12T12:40:20.292Z,100700.63
2023-01-12T12:43:19.358Z,100699.44
2023-01-12T12:45:57.309Z,100709.38
2023-01-12T12:48:35.169Z,100698.09
2023-01-12T12:51:07.076Z,100713.63
2023-01-12T12:53:37.271Z,100706.97
2023-01-12T12:56:09.148Z,100704.00
2023-01-12T12:58:42.905Z,100725.50
2023-01-12T13:01:57.474Z,100716.53
2023-01-12T13:05:00.326Z,100729.13
2023-01-12T13:07:29.654Z,100723.88
2023-01-12T13:10:29.737Z,100718.44
2023-01-12T13:13:02.884Z,100728.63
2023-01-12T13:15:37.212Z,100731.75
2023-01-12T13:18:07.209Z,100726.63
2023-01-12T13:20:55.775Z,100731.59
2023-01-12T13:23:54.376Z,100719.41
2023-01-12T13:26:41.776Z,100729.44
2023-01-12T13:29:44.443Z,100727.19
2023-01-12T13:32:35.449Z,100735.84
2023-01-12T13:35:03.634Z,100736.44
2023-01-12T13:37:49.856Z,100748.28
2023-01-12T13:40:21.631Z,100749.56
2023-01-12T13:43:08.892Z,100728.75
2023-01-12T13:45:38.809Z,100751.97
2023-01-12T13:48:08.363Z,100746.06
2023-01-12T13:50:37.595Z,100737.13
2023-01-12T13:53:06.245Z,100745.78
2023-01-12T13:55:37.201Z,100733.88
2023-01-12T13:58:08.281Z,100733.06
2023-01-12T14:00:36.536Z,100741.22
2023-01-12T14:03:06.409Z,100741.56
2023-01-12T14:05:45.248Z,100729.38
2023-01-12T14:08:51.358Z,100729.94
2023-01-12T14:11:44.314Z,100722.97
2023-01-12T14:14:45.129Z,100722.97
2023-01-12T14:17:38.985Z,100724.97
2023-01-12T14:20:16.393Z,100731.31
2023-01-12T14:22:46.053Z,100722.34
2023-01-12T14:25:17.005Z,100734.91
2023-01-12T14:27:55.389Z,100733.63
2023-01-12T14:30:27.049Z,100729.06
2023-01-12T14:32:56.012Z,100732.50
2023-01-12T14:35:26.871Z,100728.72
2023-01-12T14:37:59.119Z,100738.34
2023-01-12T14:40:35.135Z,100741.38
2023-01-12T14:43:21.337Z,100727.69
2023-01-12T14:46:22.988Z,100738.91
2023-01-12T14:48:59.861Z,100743.72
2023-01-12T14:51:36.115Z,100752.69
2023-01-12T14:54:18.831Z,100757.44
2023-01-12T14:56:52.267Z,100753.25
2023-01-12T14:59:33.597Z,100750.53
2023-01-12T15:02:32.692Z,100748.19
2023-01-12T15:05:04.470Z,100744.94
2023-01-12T15:07:37.225Z,100771.69
2023-01-12T15:10:27.415Z,100768.78
2023-01-12T15:12:58.078Z,100760.69
2023-01-12T15:15:27.701Z,100767.03
2023-01-12T15:18:23.216Z,100754.94
2023-01-12T15:21:08.555Z,100764.94
2023-01-12T15:23:55.959Z,100759.19
2023-01-12T15:26:24.031Z,100762.00
2023-01-12T15:28:52.301Z,100774.66
2023-01-12T15:31:33.772Z,100789.56
2023-01-12T15:34:02.970Z,100768.06
2023-01-12T15:36:31.112Z,100762.63
2023-01-12T15:39:00.648Z,100774.19
2023-01-12T15:41:53.157Z,100785.25
2023-01-12T15:44:22.822Z,100785.88
2023-01-12T15:46:51.278Z,100797.34
2023-01-12T15:49:19.361Z,100791.50
2023-01-12T15:51:50.293Z,100788.19
2023-01-12T15:54:21.437Z,100798.78
2023-01-12T15:56:49.685Z,100793.91
2023-01-12T15:59:18.025Z,100786.94
2023-01-12T16:01:49.180Z,100789.81
2023-01-12T16:07:07.316Z,100791.00
2023-01-12T16:09:37.089Z,100789.63
2023-01-12T16:12:05.892Z,100799.44
2023-01-12T16:14:33.969Z,100789.31
2023-01-12T16:17:02.096Z,100792.41
2023-01-12T16:19:30.266Z,100809.34
2023-01-12T16:21:58.498Z,100788.75
2023-01-12T16:24:27.013Z,100795.66
2023-01-12T16:26:56.581Z,100789.78
2023-01-12T16:29:24.836Z,100803.72
2023-01-12T16:31:53.008Z,100800.47
2023-01-12T16:34:23.670Z,100811.03
2023-01-12T16:36:51.847Z,100798.06
2023-01-12T16:39:20.227Z,100811.94
2023-01-12T16:41:49.018Z,100818.50
2023-01-12T16:44:19.067Z,100818.50
2023-01-12T16:46:48.785Z,100816.41
2023-01-12T16:49:16.861Z,100820.56
2023-01-12T16:51:46.294Z,100818.97
2023-01-12T16:54:14.479Z,100815.13
2023-01-12T16:56:43.783Z,100814.88
2023-01-12T16:59:11.903Z,100821.56
2023-01-12T17:01:41.881Z,100823.94
2023-01-12T17:04:10.803Z,100829.91
2023-01-12T17:06:41.022Z,100825.41
2023-01-12T17:09:09.347Z,100843.69
2023-01-12T17:11:39.693Z,100836.94
2023-01-12T17:27:32.348Z,100842.94
2023-01-12T17:30:00.690Z,100847.34
2023-01-12T17:32:29.076Z,100844.41
2023-01-12T17:34:57.500Z,100833.88
2023-01-12T17:37:25.713Z,100835.19
2023-01-12T17:39:53.865Z,100827.63
2023-01-12T17:42:39.572Z,100837.25
2023-01-12T17:45:10.436Z,100829.06
2023-01-12T17:47:38.813Z,100833.00
2023-01-12T17:50:07.894Z,100837.34
2023-01-12T17:52:36.158Z,100843.97
2023-01-12T17:55:05.214Z,100841.75
2023-01-12T17:57:36.079Z,100846.38
2023-01-12T18:00:06.090Z,100842.06
2023-01-12T18:02:35.933Z,100849.44
2023-01-12T18:05:04.334Z,100838.50
2023-01-12T18:07:33.191Z,100839.59
2023-01-12T18:10:01.406Z,100847.53
2023-01-12T18:12:30.303Z,100846.94
2023-01-12T18:14:59.115Z,100847.19
2023-01-12T18:17:29.698Z,100851.44
2023-01-12T18:19:59.961Z,100845.13
2023-01-12T18:22:28.311Z,100853.13
2023-01-12T18:24:56.766Z,100861.53
2023-01-12T18:27:25.421Z,100862.91
2023-01-12T18:29:53.752Z,100857.63
2023-01-12T18:32:21.996Z,100849.34
2023-01-12T18:34:50.399Z,100847.34
2023-01-12T18:37:19.916Z,100861.78
2023-01-12T18:39:50.414Z,100855.75
2023-01-12T18:42:37.434Z,100875.16
2023-01-12T18:45:06.143Z,100862.72
2023-01-12T18:47:51.794Z,100853.41
2023-01-12T18:50:43.227Z,100844.28
2023-01-12T18:53:25.657Z,100832.59
2023-01-12T18:55:57.373Z,100857.28
2023-01-12T18:58:27.770Z,100837.97
2023-01-12T19:00:56.557Z,100837.97
2023-01-12T19:03:25.588Z,100841.56
2023-01-12T19:06:02.256Z,100838.22
2023-01-12T19:08:49.395Z,100838.69
2023-01-12T19:11:18.645Z,100836.28
2023-01-12T19:14:04.132Z,100845.66
2023-01-12T19:16:50.079Z,100856.16
2023-01-12T19:19:22.817Z,100851.59
2023-01-12T19:22:09.664Z,100856.88
2023-01-12T19:24:57.305Z,100860.34
2023-01-12T19:27:42.956Z,100852.16
2023-01-12T19:30:12.805Z,100852.88
2023-01-12T19:32:41.561Z,100843.56
2023-01-12T19:35:11.893Z,100849.59
2023-01-12T19:37:40.399Z,100845.44
2023-01-12T19:40:18.108Z,100845.66
2023-01-12T19:43:04.009Z,100849.94
2023-01-12T19:45:32.404Z,100837.72
2023-01-12T19:48:00.841Z,100844.31
2023-01-12T19:50:28.968Z,100838.53
2023-01-12T19:52:57.150Z,100843.19
2023-01-12T19:55:26.755Z,100840.13
2023-01-12T19:57:55.045Z,100845.13
2023-01-12T20:00:24.779Z,100842.53
2023-01-12T20:02:53.452Z,100854.13
2023-01-12T20:05:24.738Z,100861.47
2023-01-12T20:07:54.255Z,100852.88
2023-01-12T20:10:23.922Z,100841.72
2023-01-12T20:12:54.832Z,100839.47
2023-01-12T20:15:23.010Z,100844.09
2023-01-12T20:17:51.635Z,100849.25
2023-01-12T20:20:20.238Z,100846.00
2023-01-12T20:22:51.110Z,100853.72
2023-01-12T20:25:19.917Z,100857.06
2023-01-12T20:27:49.372Z,100848.34
2023-01-12T20:30:31.944Z,100858.75
2023-01-12T20:33:07.353Z,100841.44
2023-01-12T20:35:38.316Z,100838.31
2023-01-12T20:38:13.342Z,100852.25
2023-01-12T20:40:41.612Z,100843.78
2023-01-12T20:43:09.711Z,100853.56
2023-01-12T20:45:42.084Z,100845.69
2023-01-12T20:48:13.218Z,100858.84
2023-01-12T20:50:44.473Z,100851.94
2023-01-12T20:53:13.229Z,100863.06
2023-01-12T20:55:45.897Z,100864.25
2023-01-12T20:58:14.651Z,100858.25
2023-01-12T21:00:45.086Z,100862.19
2023-01-12T21:03:13.821Z,100866.81
2023-01-12T21:05:43.353Z,100870.91
2023-01-12T21:08:12.335Z,100859.31
2023-01-12T21:10:41.919Z,100857.81
2023-01-12T21:13:10.105Z,100867.59
2023-01-12T21:15:38.208Z,100872.88
2023-01-12T21:18:07.894Z,100872.53
2023-01-12T21:20:36.477Z,100872.41
2023-01-12T21:23:05.808Z,100861.72
2023-01-12T21:25:33.988Z,100873.44
2023-01-12T21:28:02.140Z,100868.59
2023-01-12T21:30:30.428Z,100870.25
2023-01-12T21:32:59.386Z,100876.66
2023-01-12T21:35:28.946Z,100874.34
2023-01-12T21:37:58.036Z,100876.75
2023-01-12T21:40:26.389Z,100868.81
2023-01-12T21:43:09.767Z,100866.41
2023-01-12T21:45:38.738Z,100856.56
2023-01-12T21:48:07.844Z,100858.63
2023-01-12T21:50:37.911Z,100863.78
2023-01-12T21:53:07.988Z,100864.00
2023-01-12T21:55:36.693Z,100857.03
2023-01-12T21:58:04.987Z,100869.06
2023-01-12T22:00:33.204Z,100856.09
2023-01-12T22:03:01.354Z,100851.13
2023-01-12T22:05:29.642Z,100853.34
2023-01-12T22:08:00.776Z,100851.25
2023-01-12T22:10:31.908Z,100842.31
2023-01-12T22:13:14.466Z,100859.38
2023-01-12T22:15:43.180Z,100849.66
2023-01-12T22:18:11.738Z,100846.13
2023-01-12T22:20:40.159Z,100851.66
2023-01-12T22:23:13.057Z,100839.38
2023-01-12T22:25:41.350Z,100845.78
2023-01-12T22:28:09.488Z,100848.44
2023-01-12T22:30:37.615Z,100843.50
2023-01-12T22:33:05.907Z,100856.00
2023-01-12T22:35:34.862Z,100848.84
2023-01-12T22:38:03.057Z,100857.03
2023-01-12T22:40:32.747Z,100849.66
2023-01-12T22:43:18.741Z,100855.88
2023-01-12T22:45:50.739Z,100851.75
2023-01-12T22:48:20.760Z,100849.25
2023-01-12T22:50:49.953Z,100846.44
2023-01-12T22:53:18.296Z,100841.72
2023-01-12T22:55:48.075Z,100842.81
2023-01-12T22:58:16.293Z,100838.56
2023-01-12T23:00:45.702Z,100826.53
2023-01-12T23:03:14.873Z,100830.31
2023-01-12T23:05:47.838Z,100834.81
2023-01-12T23:08:17.586Z,100822.84
2023-01-12T23:10:47.546Z,100836.50
2023-01-12T23:13:17.861Z,100828.38
2023-01-12T23:15:53.392Z,100828.47
2023-01-12T23:18:25.276Z,100828.69
2023-01-12T23:20:54.381Z,100828.09
2023-01-12T23:23:22.562Z,100848.78
2023-01-12T23:25:52.064Z,100842.13
2023-01-12T23:28:20.243Z,100832.34
2023-01-12T23:30:48.406Z,100846.69
2023-01-12T23:33:16.516Z,100844.53
2023-01-12T23:35:44.652Z,100847.41
2023-01-12T23:38:16.436Z,100851.75
2023-01-12T23:40:44.596Z,100853.91
2023-01-12T23:43:14.103Z,100855.00
2023-01-12T23:45:42.273Z,100858.22
2023-01-12T23:48:10.423Z,100864.88
2023-01-12T23:50:38.476Z,100861.31
2023-01-12T23:53:06.549Z,100870.47
2023-01-12T23:55:34.640Z,100880.53
2023-01-12T23:58:02.715Z,100875.91
